createdAt,value
2019-02-20T00:00:22.730Z,22.43
2019-02-20T00:02:51.006Z,23.30
2019-02-20T00:05:19.521Z,20.87
2019-02-20T00:07:47.862Z,14.63
2019-02-20T00:10:16.494Z,19.53
2019-02-20T00:12:44.774Z,19.87
2019-02-20T00:15:13.356Z,19.77
2019-02-20T00:17:41.627Z,18.17
2019-02-20T00:20:09.865Z,19.33
2019-02-20T00:22:40.260Z,21.67
2019-02-20T00:25:08.110Z,25.33
2019-02-20T00:27:36.684Z,20.53
2019-02-20T00:30:07.968Z,16.43
2019-02-20T00:32:36.239Z,18.40
2019-02-20T00:35:05.811Z,15.97
2019-02-20T00:37:34.075Z,22.43
2019-02-20T00:40:02.319Z,18.63
2019-02-20T00:42:30.595Z,16.33
2019-02-20T00:45:00.474Z,18.63
2019-02-20T00:47:30.378Z,17.93
2019-02-20T00:49:58.621Z,13.00
2019-02-20T00:52:49.648Z,16.63
2019-02-20T00:55:13.608Z,21.40
2019-02-20T00:57:41.875Z,24.90
2019-02-20T01:00:12.229Z,19.33
2019-02-20T01:02:40.492Z,21.13
2019-02-20T01:05:09.077Z,22.57
2019-02-20T01:07:37.318Z,20.53
2019-02-20T01:10:06.945Z,17.73
2019-02-20T01:12:35.461Z,15.33
2019-02-20T01:15:09.158Z,14.33
2019-02-20T01:17:37.394Z,15.50
2019-02-20T01:20:08.573Z,19.30
2019-02-20T01:22:36.812Z,18.40
2019-02-20T01:25:05.832Z,20.90
2019-02-20T01:27:34.083Z,17.87
2019-02-20T01:30:02.357Z,14.10
2019-02-20T01:32:30.616Z,13.10
2019-02-20T01:34:58.889Z,14.80
2019-02-20T01:37:27.149Z,20.93
2019-02-20T01:39:55.728Z,18.60
2019-02-20T01:42:23.985Z,17.03
2019-02-20T01:44:52.579Z,19.30
2019-02-20T01:47:20.821Z,15.07
2019-02-20T01:49:49.413Z,17.47
2019-02-20T01:52:17.662Z,17.63
2019-02-20T01:54:46.021Z,19.30
2019-02-20T01:57:14.566Z,22.93
2019-02-20T01:59:43.147Z,16.40
2019-02-20T02:02:11.383Z,17.33
2019-02-20T02:04:39.649Z,20.10
2019-02-20T02:07:08.173Z,22.00
2019-02-20T02:09:36.447Z,17.43
2019-02-20T02:12:04.707Z,25.63
2019-02-20T02:14:32.981Z,19.10
2019-02-20T02:17:01.233Z,16.43
2019-02-20T02:19:29.516Z,16.80
2019-02-20T02:21:57.754Z,13.93
2019-02-20T02:24:26.097Z,13.90
2019-02-20T02:26:54.407Z,15.37
2019-02-20T02:29:22.978Z,15.27
2019-02-20T02:31:51.259Z,14.80
2019-02-20T02:34:19.524Z,12.63
2019-02-20T02:36:48.209Z,16.87
2019-02-20T02:39:16.468Z,13.20
2019-02-20T02:41:44.971Z,13.97
2019-02-20T02:44:13.279Z,12.27
2019-02-20T02:46:41.589Z,13.23
2019-02-20T02:49:09.881Z,12.20
2019-02-20T02:51:38.167Z,13.00
2019-02-20T02:54:06.770Z,13.57
2019-02-20T02:56:35.071Z,13.97
2019-02-20T02:59:03.350Z,13.90
2019-02-20T03:01:31.615Z,12.03
2019-02-20T03:03:59.885Z,14.73
2019-02-20T03:06:28.130Z,16.50
2019-02-20T03:08:56.416Z,15.50
2019-02-20T03:11:24.712Z,18.47
2019-02-20T03:13:53.002Z,11.57
2019-02-20T03:16:21.269Z,12.83
2019-02-20T03:18:49.622Z,15.17
2019-02-20T03:21:17.893Z,12.17
2019-02-20T03:23:46.224Z,19.57
2019-02-20T03:26:14.503Z,15.97
2019-02-20T03:28:42.809Z,16.20
2019-02-20T03:31:11.080Z,17.10
2019-02-20T03:33:39.403Z,14.83
2019-02-20T03:36:07.671Z,17.57
2019-02-20T03:38:36.240Z,15.80
2019-02-20T03:41:04.510Z,14.97
2019-02-20T03:43:32.769Z,15.60
2019-02-20T03:46:01.017Z,13.63
2019-02-20T03:48:29.260Z,16.63
2019-02-20T03:50:57.539Z,14.90
2019-02-20T03:53:25.790Z,19.20
2019-02-20T03:55:54.057Z,19.10
2019-02-20T03:58:22.346Z,14.00
2019-02-20T04:00:50.670Z,15.43
2019-02-20T04:03:18.905Z,13.03
2019-02-20T04:05:47.478Z,16.67
2019-02-20T04:08:15.721Z,18.90
2019-02-20T04:10:44.008Z,14.20
2019-02-20T04:13:12.441Z,16.23
2019-02-20T04:15:41.297Z,15.20
2019-02-20T04:18:10.900Z,20.17
2019-02-20T04:20:39.390Z,18.83
2019-02-20T04:23:07.970Z,13.47
2019-02-20T04:25:36.236Z,16.80
2019-02-20T04:28:04.550Z,17.63
2019-02-20T04:30:33.112Z,12.77
2019-02-20T04:33:01.392Z,15.70
2019-02-20T04:35:29.979Z,21.83
2019-02-20T04:37:58.246Z,15.07
2019-02-20T04:40:26.556Z,15.67
2019-02-20T04:42:55.059Z,15.50
2019-02-20T04:45:23.691Z,13.23
2019-02-20T04:47:51.935Z,15.13
2019-02-20T04:50:20.196Z,14.67
2019-02-20T04:52:48.446Z,21.33
2019-02-20T04:55:16.716Z,14.17
2019-02-20T04:57:44.963Z,14.00
2019-02-20T05:00:14.253Z,14.53
2019-02-20T05:02:42.511Z,19.33
2019-02-20T05:05:10.777Z,12.73
2019-02-20T05:07:39.023Z,14.97
2019-02-20T05:10:09.886Z,14.70
2019-02-20T05:12:38.131Z,12.13
2019-02-20T05:15:06.434Z,17.97
2019-02-20T05:17:34.969Z,14.63
2019-02-20T05:20:03.689Z,15.60
2019-02-20T05:22:31.921Z,17.20
2019-02-20T05:25:00.237Z,15.77
2019-02-20T05:27:28.630Z,12.87
2019-02-20T05:29:56.969Z,15.47
2019-02-20T05:32:25.222Z,17.47
2019-02-20T05:34:53.504Z,17.67
2019-02-20T05:37:21.757Z,19.20
2019-02-20T05:39:50.361Z,14.27
2019-02-20T05:42:18.615Z,17.60
2019-02-20T05:44:46.873Z,13.33
2019-02-20T05:47:15.604Z,15.47
2019-02-20T05:49:43.987Z,15.57
2019-02-20T05:52:12.326Z,15.07
2019-02-20T05:54:40.651Z,14.60
2019-02-20T05:57:08.912Z,14.00
2019-02-20T05:59:37.188Z,14.47
2019-02-20T06:02:06.355Z,16.97
2019-02-20T06:04:34.629Z,15.63
2019-02-20T06:07:02.933Z,17.27
2019-02-20T06:09:31.209Z,16.87
2019-02-20T06:11:59.455Z,16.67
2019-02-20T06:14:27.732Z,16.40
2019-02-20T06:16:55.979Z,19.90
2019-02-20T06:19:24.264Z,18.17
2019-02-20T06:21:52.497Z,18.97
2019-02-20T06:24:21.155Z,17.20
2019-02-20T06:26:49.393Z,16.07
2019-02-20T06:29:17.666Z,17.67
2019-02-20T06:31:45.905Z,14.57
2019-02-20T06:34:16.205Z,14.63
2019-02-20T06:36:44.453Z,14.37
2019-02-20T06:39:12.719Z,14.77
2019-02-20T06:41:41.208Z,16.47
2019-02-20T06:44:09.622Z,13.13
2019-02-20T06:46:37.855Z,18.70
2019-02-20T06:49:06.144Z,24.77
2019-02-20T06:51:34.385Z,22.60
2019-02-20T06:54:02.629Z,20.60
2019-02-20T06:56:30.917Z,18.83
2019-02-20T06:58:59.218Z,18.37
2019-02-20T07:01:27.458Z,16.10
2019-02-20T07:03:55.769Z,15.47
2019-02-20T07:06:39.121Z,15.93
2019-02-20T07:09:19.851Z,16.97
2019-02-20T07:11:57.060Z,17.57
2019-02-20T07:14:43.605Z,15.17
2019-02-20T07:17:21.350Z,16.73
2019-02-20T07:19:59.249Z,17.20
2019-02-20T07:22:49.562Z,18.37
2019-02-20T07:25:36.169Z,23.00
2019-02-20T07:28:32.027Z,18.43
2019-02-20T07:31:00.261Z,16.93
2019-02-20T07:33:31.675Z,18.60
2019-02-20T07:36:00.013Z,19.43
2019-02-20T07:38:28.288Z,18.27
2019-02-20T07:40:56.831Z,14.90
2019-02-20T07:43:25.155Z,17.87
2019-02-20T07:45:53.412Z,22.20
2019-02-20T07:48:21.916Z,21.87
2019-02-20T07:50:50.203Z,14.77
2019-02-20T07:53:18.574Z,16.20
2019-02-20T07:55:46.848Z,16.07
2019-02-20T07:58:15.481Z,19.23
2019-02-20T08:00:44.054Z,18.20
2019-02-20T08:03:12.746Z,13.67
2019-02-20T08:05:41.022Z,16.93
2019-02-20T08:08:09.266Z,16.50
2019-02-20T08:10:37.538Z,15.73
2019-02-20T08:13:05.830Z,15.10
2019-02-20T08:15:34.421Z,17.33
2019-02-20T08:18:02.803Z,17.87
2019-02-20T08:20:31.175Z,16.20
2019-02-20T08:22:59.875Z,14.87
2019-02-20T08:25:28.476Z,16.13
2019-02-20T08:27:57.039Z,19.60
2019-02-20T08:30:25.653Z,19.23
2019-02-20T08:32:53.950Z,19.97
2019-02-20T08:35:22.229Z,18.20
2019-02-20T08:37:50.875Z,21.10
2019-02-20T08:40:19.944Z,17.50
2019-02-20T08:42:48.297Z,21.83
2019-02-20T08:45:17.066Z,20.67
2019-02-20T08:47:45.336Z,21.37
2019-02-20T08:50:13.893Z,26.63
2019-02-20T08:52:42.917Z,21.87
2019-02-20T08:55:11.672Z,24.10
2019-02-20T08:57:40.050Z,25.83
2019-02-20T09:00:11.310Z,26.53
2019-02-20T09:02:39.575Z,30.97
2019-02-20T09:05:09.622Z,32.17
2019-02-20T09:07:38.000Z,30.10
2019-02-20T09:10:11.051Z,36.57
2019-02-20T09:12:39.647Z,23.87
2019-02-20T09:15:10.607Z,22.30
2019-02-20T09:17:39.147Z,22.03
2019-02-20T09:20:11.722Z,21.40
2019-02-20T09:22:39.978Z,27.33
2019-02-20T09:25:19.288Z,19.87
2019-02-20T09:27:40.563Z,26.97
2019-02-20T09:30:16.224Z,21.40
2019-02-20T09:32:44.789Z,21.40
2019-02-20T09:35:13.069Z,23.70
2019-02-20T09:37:41.341Z,22.50
2019-02-20T09:40:16.997Z,29.37
2019-02-20T09:42:50.606Z,22.17
2019-02-20T09:45:19.340Z,23.47
2019-02-20T09:47:47.623Z,24.93
2019-02-20T09:50:15.919Z,24.30
2019-02-20T09:52:51.869Z,26.03
2019-02-20T09:55:14.933Z,24.70
2019-02-20T09:57:43.253Z,27.70
2019-02-20T10:00:19.818Z,19.83
2019-02-20T10:02:48.072Z,19.80
2019-02-20T10:05:16.369Z,27.87
2019-02-20T10:07:44.641Z,24.23
2019-02-20T10:10:13.405Z,26.27
2019-02-20T10:12:41.673Z,23.90
2019-02-20T10:15:15.465Z,24.57
2019-02-20T10:17:44.065Z,20.27
2019-02-20T10:20:12.752Z,28.97
2019-02-20T10:22:41.349Z,24.07
2019-02-20T10:25:11.439Z,21.97
2019-02-20T10:27:40.042Z,31.93
2019-02-20T10:30:18.489Z,31.23
2019-02-20T10:32:46.732Z,33.30
2019-02-20T10:35:15.299Z,23.10
2019-02-20T10:37:43.885Z,28.63
2019-02-20T10:40:12.516Z,27.17
2019-02-20T10:42:40.765Z,28.83
2019-02-20T10:45:11.325Z,31.10
2019-02-20T10:47:39.617Z,25.37
2019-02-20T10:50:10.477Z,26.60
2019-02-20T10:52:38.710Z,25.20
2019-02-20T10:55:08.333Z,21.47
2019-02-20T10:57:36.970Z,22.60
2019-02-20T11:00:24.602Z,24.53
2019-02-20T11:02:52.995Z,21.70
2019-02-20T11:05:21.305Z,21.30
2019-02-20T11:07:49.576Z,22.87
2019-02-20T11:10:17.853Z,21.80
2019-02-20T11:12:46.365Z,29.53
2019-02-20T11:15:14.644Z,31.43
2019-02-20T11:17:42.899Z,25.73
2019-02-20T11:20:13.484Z,24.77
2019-02-20T11:22:41.564Z,27.03
2019-02-20T11:25:11.634Z,24.10
2019-02-20T11:27:39.912Z,24.53
2019-02-20T11:30:11.678Z,25.53
2019-02-20T11:32:39.970Z,26.67
2019-02-20T11:35:08.754Z,24.37
2019-02-20T11:37:37.025Z,30.37
2019-02-20T11:40:07.220Z,25.00
2019-02-20T11:42:35.509Z,20.87
2019-02-20T11:45:04.743Z,27.67
2019-02-20T11:47:33.661Z,25.07
2019-02-20T11:50:02.008Z,24.97
2019-02-20T11:52:38.175Z,26.53
2019-02-20T11:55:00.297Z,20.77
2019-02-20T11:57:28.979Z,24.50
2019-02-20T11:59:57.538Z,23.50
2019-02-20T12:02:25.816Z,20.30
2019-02-20T12:04:54.405Z,22.77
2019-02-20T12:07:22.751Z,21.53
2019-02-20T12:09:51.042Z,28.03
2019-02-20T12:12:19.658Z,25.43
2019-02-20T12:14:47.904Z,23.03
2019-02-20T12:17:16.247Z,23.47
2019-02-20T12:19:44.520Z,20.57
2019-02-20T12:22:12.801Z,24.63
2019-02-20T12:24:41.050Z,17.87
2019-02-20T12:27:09.356Z,19.00
2019-02-20T12:29:37.629Z,19.67
2019-02-20T12:32:06.278Z,20.70
2019-02-20T12:34:34.557Z,18.10
2019-02-20T12:37:03.238Z,21.60
2019-02-20T12:39:31.477Z,19.10
2019-02-20T12:42:00.086Z,19.40
2019-02-20T12:44:28.627Z,18.80
2019-02-20T12:46:56.995Z,15.57
2019-02-20T12:49:25.542Z,19.80
2019-02-20T12:51:53.830Z,19.50
2019-02-20T12:54:22.388Z,21.20
2019-02-20T12:56:50.972Z,18.43
2019-02-20T12:59:19.550Z,19.53
2019-02-20T13:01:48.133Z,19.57
2019-02-20T13:04:16.704Z,15.50
2019-02-20T13:06:44.997Z,19.60
2019-02-20T13:09:14.906Z,20.87
2019-02-20T13:11:43.188Z,16.83
2019-02-20T13:14:11.462Z,16.93
2019-02-20T13:16:39.739Z,18.80
2019-02-20T13:19:07.991Z,21.60
2019-02-20T13:21:36.265Z,18.10
2019-02-20T13:24:04.869Z,19.10
2019-02-20T13:26:33.461Z,17.37
2019-02-20T13:29:01.705Z,14.93
2019-02-20T13:31:30.357Z,55.63
2019-02-20T13:33:58.657Z,17.37
2019-02-20T13:36:26.924Z,16.83
2019-02-20T13:38:55.464Z,16.10
2019-02-20T13:41:23.821Z,20.53
2019-02-20T13:43:52.061Z,13.00
2019-02-20T13:46:20.343Z,12.00
2019-02-20T13:48:48.671Z,17.63
2019-02-20T13:51:17.747Z,15.47
2019-02-20T13:53:46.707Z,15.97
2019-02-20T13:56:15.418Z,16.80
2019-02-20T13:58:43.676Z,16.37
2019-02-20T14:01:12.054Z,13.77
2019-02-20T14:03:40.401Z,14.13
2019-02-20T14:06:09.051Z,18.20
2019-02-20T14:08:37.386Z,16.40
2019-02-20T14:11:06.320Z,13.70
2019-02-20T14:13:34.649Z,16.93
2019-02-20T14:16:03.559Z,28.13
2019-02-20T14:18:32.178Z,35.57
2019-02-20T14:21:00.530Z,17.40
2019-02-20T14:23:29.763Z,15.80
2019-02-20T14:25:58.428Z,13.57
2019-02-20T14:28:27.069Z,11.33
2019-02-20T14:30:55.347Z,12.07
2019-02-20T14:33:23.701Z,16.27
2019-02-20T14:35:52.071Z,15.57
2019-02-20T14:38:20.406Z,19.20
2019-02-20T14:40:48.744Z,22.30
2019-02-20T14:43:17.102Z,27.10
2019-02-20T14:45:45.738Z,17.50
2019-02-20T14:48:14.023Z,14.23
2019-02-20T14:50:42.622Z,16.90
2019-02-20T14:53:10.901Z,13.13
2019-02-20T14:55:39.582Z,10.53
2019-02-20T14:58:07.882Z,14.80
2019-02-20T15:00:36.565Z,8.83
2019-02-20T15:03:05.194Z,10.77
2019-02-20T15:05:33.457Z,10.00
2019-02-20T15:08:02.229Z,13.10
2019-02-20T15:10:31.004Z,11.07
2019-02-20T15:12:59.347Z,11.83
2019-02-20T15:15:27.666Z,9.20
2019-02-20T15:17:56.430Z,12.27
2019-02-20T15:20:24.674Z,15.13
2019-02-20T15:22:53.403Z,11.93
2019-02-20T15:25:21.740Z,9.70
2019-02-20T15:27:50.469Z,10.57
2019-02-20T15:30:19.021Z,9.83
2019-02-20T15:32:47.405Z,13.13
2019-02-20T15:35:16.016Z,10.83
2019-02-20T15:37:44.321Z,10.63
2019-02-20T15:40:12.643Z,9.87
2019-02-20T15:42:41.342Z,13.70
2019-02-20T15:45:11.026Z,42.47
2019-02-20T15:47:39.865Z,18.57
2019-02-20T15:50:11.613Z,11.77
2019-02-20T15:52:39.915Z,17.60
2019-02-20T15:55:11.241Z,13.50
2019-02-20T15:57:39.374Z,10.13
2019-02-20T16:00:10.898Z,12.80
2019-02-20T16:02:39.262Z,14.53
2019-02-20T16:05:07.873Z,10.10
2019-02-20T16:07:36.446Z,10.43
2019-02-20T16:10:07.450Z,10.27
2019-02-20T16:12:35.788Z,10.13
2019-02-20T16:15:05.223Z,9.97
2019-02-20T16:17:33.807Z,10.50
2019-02-20T16:20:02.165Z,11.80
2019-02-20T16:22:30.935Z,8.97
2019-02-20T16:24:59.257Z,9.40
2019-02-20T16:27:27.533Z,11.63
2019-02-20T16:29:55.798Z,10.13
2019-02-20T16:32:24.161Z,8.77
2019-02-20T16:34:52.478Z,10.37
2019-02-20T16:37:21.727Z,8.90
2019-02-20T16:39:50.385Z,8.43
2019-02-20T16:42:18.705Z,15.33
2019-02-20T16:44:47.042Z,8.67
2019-02-20T16:47:15.419Z,14.00
2019-02-20T16:49:43.693Z,13.03
2019-02-20T16:52:12.026Z,11.90
2019-02-20T16:54:40.329Z,11.37
2019-02-20T16:57:09.271Z,12.13
2019-02-20T16:59:37.973Z,12.77
2019-02-20T17:02:06.380Z,13.23
2019-02-20T17:04:35.028Z,13.17
2019-02-20T17:07:03.361Z,15.60
2019-02-20T17:09:32.028Z,14.47
2019-02-20T17:12:01.491Z,14.97
2019-02-20T17:14:30.278Z,15.37
2019-02-20T17:16:58.602Z,13.33
2019-02-20T17:19:26.894Z,16.20
2019-02-20T17:21:55.223Z,16.33
2019-02-20T17:24:23.625Z,14.47
2019-02-20T17:26:51.965Z,18.17
2019-02-20T17:29:20.972Z,18.07
2019-02-20T17:31:49.295Z,18.80
2019-02-20T17:34:17.616Z,16.87
2019-02-20T17:36:46.209Z,17.40
2019-02-20T17:39:14.984Z,17.63
2019-02-20T17:41:43.220Z,17.83
2019-02-20T17:44:11.513Z,17.53
2019-02-20T17:46:40.713Z,20.33
2019-02-20T17:49:09.013Z,17.67
2019-02-20T17:51:37.597Z,16.70
2019-02-20T17:54:05.893Z,16.50
2019-02-20T17:56:34.488Z,19.77
2019-02-20T17:59:02.798Z,17.43
2019-02-20T18:01:31.042Z,16.80
2019-02-20T18:03:59.350Z,21.27
2019-02-20T18:06:27.731Z,25.83
2019-02-20T18:08:56.070Z,19.00
2019-02-20T18:11:24.348Z,21.07
2019-02-20T18:13:52.644Z,22.53
2019-02-20T18:16:21.191Z,19.17
2019-02-20T18:18:49.509Z,17.63
2019-02-20T18:21:17.757Z,19.53
2019-02-20T18:23:46.429Z,22.77
2019-02-20T18:26:14.772Z,21.97
2019-02-20T18:28:43.087Z,20.57
2019-02-20T18:31:11.353Z,20.40
2019-02-20T18:33:39.651Z,20.20
2019-02-20T18:36:07.961Z,21.00
2019-02-20T18:38:36.240Z,16.23
2019-02-20T18:41:04.610Z,24.27
2019-02-20T18:43:32.867Z,25.73
2019-02-20T18:46:01.243Z,26.07
2019-02-20T18:48:29.519Z,22.43
2019-02-20T18:50:58.022Z,21.13
2019-02-20T18:53:26.645Z,19.10
2019-02-20T18:55:56.122Z,20.23
2019-02-20T18:58:33.530Z,21.83
2019-02-20T19:00:54.625Z,25.23
2019-02-20T19:03:22.872Z,22.40
2019-02-20T19:05:51.258Z,18.70
2019-02-20T19:08:34.885Z,23.00
2019-02-20T19:11:06.513Z,23.03
2019-02-20T19:14:11.530Z,29.60
2019-02-20T19:16:58.327Z,28.33
2019-02-20T19:19:32.775Z,23.30
2019-02-20T19:22:19.465Z,20.73
2019-02-20T19:25:06.315Z,22.63
2019-02-20T19:27:55.969Z,21.60
2019-02-20T19:30:46.912Z,21.93
2019-02-20T19:33:21.205Z,25.83
2019-02-20T19:36:04.803Z,22.33
2019-02-20T19:38:36.375Z,22.87
2019-02-20T19:41:42.626Z,26.47
2019-02-20T19:44:19.912Z,24.13
2019-02-20T19:46:57.347Z,21.93
2019-02-20T19:49:56.850Z,22.20
2019-02-20T19:52:28.388Z,24.63
2019-02-20T19:55:09.146Z,24.70
2019-02-20T19:58:04.904Z,20.07
2019-02-20T20:00:54.675Z,23.10
2019-02-20T20:03:38.255Z,26.07
2019-02-20T20:06:27.919Z,22.07
2019-02-20T20:09:11.620Z,25.50
2019-02-20T20:11:49.217Z,22.50
2019-02-20T20:14:26.618Z,19.17
2019-02-20T20:17:04.118Z,18.00
2019-02-20T20:19:44.427Z,22.70
2019-02-20T20:22:21.915Z,18.37
2019-02-20T20:25:08.227Z,19.93
2019-02-20T20:27:55.041Z,19.23
2019-02-20T20:30:35.437Z,18.20
2019-02-20T20:33:13.158Z,19.37
2019-02-20T20:35:44.823Z,21.37
2019-02-20T20:38:25.173Z,22.60
2019-02-20T20:41:29.892Z,21.50
2019-02-20T20:44:01.447Z,21.47
2019-02-20T20:46:50.356Z,21.60
2019-02-20T20:49:24.768Z,23.50
2019-02-20T20:52:21.990Z,19.77
2019-02-20T20:55:08.569Z,20.97
2019-02-20T20:57:46.280Z,25.40
2019-02-20T21:00:40.775Z,18.97
2019-02-20T21:03:12.329Z,20.43
2019-02-20T21:06:17.497Z,27.50
2019-02-20T21:08:49.518Z,24.50
2019-02-20T21:11:40.214Z,22.60
2019-02-20T21:14:14.419Z,22.90
2019-02-20T21:16:52.002Z,27.70
2019-02-20T21:19:43.210Z,18.70
2019-02-20T21:22:18.197Z,19.30
2019-02-20T21:25:09.442Z,18.83
2019-02-20T21:28:06.699Z,19.67
2019-02-20T21:30:47.020Z,19.73
2019-02-20T21:33:41.285Z,18.97
2019-02-20T21:36:13.207Z,24.23
2019-02-20T21:38:47.252Z,25.30
2019-02-20T21:41:24.099Z,27.53
2019-02-20T21:43:59.407Z,26.93
2019-02-20T21:46:45.131Z,28.53
2019-02-20T21:49:19.310Z,32.80
2019-02-20T21:51:50.842Z,27.17
2019-02-20T21:54:31.007Z,27.80
2019-02-20T21:57:05.256Z,25.37
2019-02-20T21:59:45.827Z,20.37
2019-02-20T22:02:26.161Z,22.30
2019-02-20T22:05:16.314Z,24.60
2019-02-20T22:07:54.163Z,20.33
2019-02-20T22:10:59.061Z,19.40
2019-02-20T22:13:39.470Z,24.97
2019-02-20T22:16:22.816Z,26.93
2019-02-20T22:18:54.354Z,20.57
2019-02-20T22:21:28.758Z,21.50
2019-02-20T22:24:09.097Z,19.13
2019-02-20T22:26:53.074Z,21.23
2019-02-20T22:29:30.765Z,18.10
2019-02-20T22:32:39.010Z,21.40
2019-02-20T22:35:22.821Z,18.90
2019-02-20T22:38:03.391Z,17.67
2019-02-20T22:40:43.865Z,15.70
2019-02-20T22:43:39.621Z,15.17
2019-02-20T22:46:14.642Z,18.50
2019-02-20T22:48:51.995Z,12.80
2019-02-20T22:51:32.144Z,17.77
2019-02-20T22:54:27.922Z,15.70
2019-02-20T22:57:17.281Z,16.87
2019-02-20T23:00:03.683Z,19.73
2019-02-20T23:02:35.258Z,18.40
2019-02-20T23:05:21.261Z,20.33
2019-02-20T23:08:01.741Z,17.63
2019-02-20T23:10:44.755Z,20.30
2019-02-20T23:13:18.785Z,13.67
2019-02-20T23:15:47.049Z,16.90
2019-02-20T23:18:15.391Z,17.40
2019-02-20T23:20:43.925Z,18.60
2019-02-20T23:23:12.485Z,18.20
2019-02-20T23:25:41.082Z,19.93
2019-02-20T23:28:09.664Z,24.17
2019-02-20T23:30:38.275Z,19.50
2019-02-20T23:33:06.613Z,18.40
2019-02-20T23:35:34.886Z,19.40
2019-02-20T23:38:03.157Z,16.60
2019-02-20T23:40:31.413Z,17.63
2019-02-20T23:43:00.048Z,18.10
2019-02-20T23:45:28.625Z,16.10
2019-02-20T23:47:56.889Z,19.00
2019-02-20T23:50:25.166Z,17.13
2019-02-20T23:52:53.756Z,16.33
2019-02-20T23:55:22.333Z,17.17
2019-02-20T23:57:50.913Z,14.10
